CYHK

Gjoa Haven Airport

Gjoa Haven, Canada
METAR CYHK 241100Z AUTO 24009KT 7SM OVC022 M02/M03 A2953 RMK SLP005
Observed Flight Rules
Sep-24 @ 11:00 UTC (33 minutes ago) Marginal Visual Flight Rules
Wind Visibility Clouds
240° at 9 knots 7 miles
  • Overcast at 2,200' AGL
Temperatures Readings
Current -2°C / 28°F
Dewpoint -3°C / 27°F
Humidity 93%
Altimeter 29.53" Hg
Pressure 1000.5 hPa
Elevation 46
METAR CYHK 241100Z AUTO 24009KT 7SM OVC022 M02/M03 A2953 RMK SLP005
Observed Flight Rules
Sep-24 @ 11:00 UTC
(33 minutes ago)
MVFR
Wind Visibility
240° at 9 knots 7 miles
Clouds
  • Overcast at 2,200' AGL
Temperature Dewpoint
-2°C / 28°F -3°C / 27°F
Humidity Altimeter Pressure
93% 29.53" Hg 1000.5 hPa